sensor_id;sensor_type;location;lat;lon;timestamp;pressure;altitude;pressure_sealevel;temperature;humidity
39891;BME280;25564;53.312;9.790;2023-12-07T00:00:17;101108.50;;;3.25;100.00
39891;BME280;25564;53.312;9.790;2023-12-07T00:02:49;101098.75;;;3.18;100.00
39891;BME280;25564;53.312;9.790;2023-12-07T00:05:20;101109.41;;;3.26;100.00
39891;BME280;25564;53.312;9.790;2023-12-07T00:07:52;101108.56;;;3.28;100.00
39891;BME280;25564;53.312;9.790;2023-12-07T00:10:24;101113.00;;;3.33;100.00
39891;BME280;25564;53.312;9.790;2023-12-07T00:12:55;101109.44;;;3.29;100.00
39891;BME280;25564;53.312;9.790;2023-12-07T00:15:27;101126.97;;;3.32;100.00
39891;BME280;25564;53.312;9.790;2023-12-07T00:17:59;101119.06;;;3.28;100.00
39891;BME280;25564;53.312;9.790;2023-12-07T00:20:33;101120.75;;;3.26;100.00
39891;BME280;25564;53.312;9.790;2023-12-07T00:23:05;101107.53;;;3.20;100.00
39891;BME280;25564;53.312;9.790;2023-12-07T00:25:37;101106.63;;;3.18;100.00
39891;BME280;25564;53.312;9.790;2023-12-07T00:28:11;101117.13;;;3.18;100.00
39891;BME280;25564;53.312;9.790;2023-12-07T00:30:43;101132.00;;;3.19;100.00
39891;BME280;25564;53.312;9.790;2023-12-07T00:33:15;101131.88;;;3.13;100.00
39891;BME280;25564;53.312;9.790;2023-12-07T00:35:48;101125.72;;;3.10;100.00
39891;BME280;25564;53.312;9.790;2023-12-07T00:38:21;101129.25;;;3.12;100.00
39891;BME280;25564;53.312;9.790;2023-12-07T00:40:53;101124.00;;;3.10;100.00
39891;BME280;25564;53.312;9.790;2023-12-07T00:43:25;101122.25;;;3.11;100.00
39891;BME280;25564;53.312;9.790;2023-12-07T00:45:58;101133.63;;;3.13;100.00
39891;BME280;25564;53.312;9.790;2023-12-07T00:48:29;101135.31;;;3.09;100.00
39891;BME280;25564;53.312;9.790;2023-12-07T00:51:02;101137.94;;;3.09;100.00
39891;BME280;25564;53.312;9.790;2023-12-07T00:53:34;101136.25;;;3.11;100.00
39891;BME280;25564;53.312;9.790;2023-12-07T00:56:06;101141.53;;;3.16;100.00
39891;BME280;25564;53.312;9.790;2023-12-07T00:58:38;101143.22;;;3.11;100.00
39891;BME280;25564;53.312;9.790;2023-12-07T01:01:10;101138.91;;;3.16;100.00
39891;BME280;25564;53.312;9.790;2023-12-07T01:03:42;101141.63;;;3.20;100.00
39891;BME280;25564;53.312;9.790;2023-12-07T01:06:14;101140.59;;;3.11;100.00
39891;BME280;25564;53.312;9.790;2023-12-07T01:08:49;101140.63;;;3.14;100.00
39891;BME280;25564;53.312;9.790;2023-12-07T01:11:22;101153.00;;;3.21;100.00
39891;BME280;25564;53.312;9.790;2023-12-07T01:13:56;101140.75;;;3.20;100.00
39891;BME280;25564;53.312;9.790;2023-12-07T01:16:29;101157.44;;;3.23;100.00
39891;BME280;25564;53.312;9.790;2023-12-07T01:19:00;101157.41;;;3.22;100.00
39891;BME280;25564;53.312;9.790;2023-12-07T01:21:32;101164.38;;;3.21;100.00
39891;BME280;25564;53.312;9.790;2023-12-07T01:24:05;101166.22;;;3.25;100.00
39891;BME280;25564;53.312;9.790;2023-12-07T01:26:46;101160.81;;;3.18;100.00
39891;BME280;25564;53.312;9.790;2023-12-07T01:29:18;101170.63;;;3.28;100.00
39891;BME280;25564;53.312;9.790;2023-12-07T01:31:49;101157.47;;;3.26;100.00
39891;BME280;25564;53.312;9.790;2023-12-07T01:34:21;101163.59;;;3.25;100.00
39891;BME280;25564;53.312;9.790;2023-12-07T01:36:54;101171.44;;;3.25;100.00
39891;BME280;25564;53.312;9.790;2023-12-07T01:39:25;101174.88;;;3.21;100.00
39891;BME280;25564;53.312;9.790;2023-12-07T01:41:57;101173.16;;;3.23;100.00
39891;BME280;25564;53.312;9.790;2023-12-07T01:44:28;101164.38;;;3.21;100.00
39891;BME280;25564;53.312;9.790;2023-12-07T01:47:02;101176.75;;;3.28;100.00
39891;BME280;25564;53.312;9.790;2023-12-07T01:49:34;101182.06;;;3.32;100.00
39891;BME280;25564;53.312;9.790;2023-12-07T01:52:08;101181.97;;;3.27;100.00
39891;BME280;25564;53.312;9.790;2023-12-07T01:54:40;101195.13;;;3.28;100.00
39891;BME280;25564;53.312;9.790;2023-12-07T01:57:15;101189.91;;;3.30;100.00
39891;BME280;25564;53.312;9.790;2023-12-07T01:59:48;101186.41;;;3.31;100.00
39891;BME280;25564;53.312;9.790;2023-12-07T02:02:20;101184.63;;;3.28;100.00
39891;BME280;25564;53.312;9.790;2023-12-07T02:05:13;101196.94;;;3.33;100.00
39891;BME280;25564;53.312;9.790;2023-12-07T02:07:47;101194.28;;;3.31;100.00
39891;BME280;25564;53.312;9.790;2023-12-07T02:10:19;101197.84;;;3.35;100.00
39891;BME280;25564;53.312;9.790;2023-12-07T02:12:51;101193.50;;;3.35;100.00
39891;BME280;25564;53.312;9.790;2023-12-07T02:15:24;101197.84;;;3.35;100.00
39891;BME280;25564;53.312;9.790;2023-12-07T02:18:17;101194.25;;;3.29;100.00
39891;BME280;25564;53.312;9.790;2023-12-07T02:20:55;101200.53;;;3.38;100.00
39891;BME280;25564;53.312;9.790;2023-12-07T02:23:29;101201.47;;;3.40;100.00
39891;BME280;25564;53.312;9.790;2023-12-07T02:26:18;101191.03;;;3.43;100.00
39891;BME280;25564;53.312;9.790;2023-12-07T02:28:52;101203.34;;;3.47;100.00
39891;BME280;25564;53.312;9.790;2023-12-07T02:31:23;101199.00;;;3.49;100.00
39891;BME280;25564;53.312;9.790;2023-12-07T02:33:58;101199.03;;;3.50;100.00
39891;BME280;25564;53.312;9.790;2023-12-07T02:36:31;101203.44;;;3.51;100.00
39891;BME280;25564;53.312;9.790;2023-12-07T02:39:05;101202.56;;;3.52;100.00
39891;BME280;25564;53.312;9.790;2023-12-07T02:41:37;101197.34;;;3.54;100.00
39891;BME280;25564;53.312;9.790;2023-12-07T02:44:12;101186.72;;;3.46;100.00
39891;BME280;25564;53.312;9.790;2023-12-07T02:46:44;101201.69;;;3.52;100.00
39891;BME280;25564;53.312;9.790;2023-12-07T02:49:17;101203.47;;;3.53;100.00
39891;BME280;25564;53.312;9.790;2023-12-07T02:51:49;101209.53;;;3.50;100.00
39891;BME280;25564;53.312;9.790;2023-12-07T02:54:21;101221.84;;;3.54;100.00
39891;BME280;25564;53.312;9.790;2023-12-07T02:56:52;101217.44;;;3.52;100.00
39891;BME280;25564;53.312;9.790;2023-12-07T02:59:24;101215.66;;;3.51;100.00
39891;BME280;25564;53.312;9.790;2023-12-07T03:01:56;101217.50;;;3.55;100.00
39891;BME280;25564;53.312;9.790;2023-12-07T03:04:27;101216.59;;;3.54;100.00
39891;BME280;25564;53.312;9.790;2023-12-07T03:06:59;101228.03;;;3.58;100.00
39891;BME280;25564;53.312;9.790;2023-12-07T03:09:31;101214.03;;;3.57;100.00
39891;BME280;25564;53.312;9.790;2023-12-07T03:12:03;101218.44;;;3.58;100.00
39891;BME280;25564;53.312;9.790;2023-12-07T03:14:35;101219.25;;;3.56;100.00
39891;BME280;25564;53.312;9.790;2023-12-07T03:17:06;101219.34;;;3.60;100.00
39891;BME280;25564;53.312;9.790;2023-12-07T03:19:38;101222.03;;;3.64;100.00
39891;BME280;25564;53.312;9.790;2023-12-07T03:22:13;101219.38;;;3.62;100.00
39891;BME280;25564;53.312;9.790;2023-12-07T03:24:50;101215.94;;;3.65;100.00
39891;BME280;25564;53.312;9.790;2023-12-07T03:27:22;101216.78;;;3.64;100.00
39891;BME280;25564;53.312;9.790;2023-12-07T03:29:55;101216.81;;;3.65;100.00
39891;BME280;25564;53.312;9.790;2023-12-07T03:32:27;101217.66;;;3.64;100.00
39891;BME280;25564;53.312;9.790;2023-12-07T03:34:58;101229.03;;;3.65;100.00
39891;BME280;25564;53.312;9.790;2023-12-07T03:37:30;101222.78;;;3.58;100.00
39891;BME280;25564;53.312;9.790;2023-12-07T03:40:02;101220.19;;;3.59;100.00
39891;BME280;25564;53.312;9.790;2023-12-07T03:42:37;101214.06;;;3.59;100.00
39891;BME280;25564;53.312;9.790;2023-12-07T03:45:26;101216.78;;;3.64;100.00
39891;BME280;25564;53.312;9.790;2023-12-07T03:47:59;101214.13;;;3.62;100.00
39891;BME280;25564;53.312;9.790;2023-12-07T03:50:31;101216.75;;;3.62;100.00
39891;BME280;25564;53.312;9.790;2023-12-07T03:53:03;101217.63;;;3.63;100.00
39891;BME280;25564;53.312;9.790;2023-12-07T03:55:34;101214.94;;;3.59;100.00
39891;BME280;25564;53.312;9.790;2023-12-07T03:58:06;101218.47;;;3.60;100.00
39891;BME280;25564;53.312;9.790;2023-12-07T04:00:38;101222.00;;;3.62;100.00
39891;BME280;25564;53.312;9.790;2023-12-07T04:03:09;101224.66;;;3.64;100.00
39891;BME280;25564;53.312;9.790;2023-12-07T04:05:41;101233.38;;;3.63;100.00
39891;BME280;25564;53.312;9.790;2023-12-07T04:08:13;101231.63;;;3.63;100.00
39891;BME280;25564;53.312;9.790;2023-12-07T04:10:44;101228.16;;;3.64;100.00
39891;BME280;25564;53.312;9.790;2023-12-07T04:13:16;101229.94;;;3.65;100.00
39891;BME280;25564;53.312;9.790;2023-12-07T04:15:47;101213.16;;;3.57;100.00
39891;BME280;25564;53.312;9.790;2023-12-07T04:18:19;101231.56;;;3.58;100.00
39891;BME280;25564;53.312;9.790;2023-12-07T04:20:51;101242.06;;;3.60;100.00
39891;BME280;25564;53.312;9.790;2023-12-07T04:23:23;101240.28;;;3.57;100.00
39891;BME280;25564;53.312;9.790;2023-12-07T04:25:54;101240.25;;;3.56;100.00
39891;BME280;25564;53.312;9.790;2023-12-07T04:28:30;101238.53;;;3.58;100.00
39891;BME280;25564;53.312;9.790;2023-12-07T04:31:04;101248.19;;;3.59;100.00
39891;BME280;25564;53.312;9.790;2023-12-07T04:33:35;101254.25;;;3.56;100.00
39891;BME280;25564;53.312;9.790;2023-12-07T04:36:07;101251.53;;;3.52;100.00
39891;BME280;25564;53.312;9.790;2023-12-07T04:38:41;101264.66;;;3.52;100.00
39891;BME280;25564;53.312;9.790;2023-12-07T04:41:13;101255.91;;;3.51;100.00
39891;BME280;25564;53.312;9.790;2023-12-07T04:43:44;101267.31;;;3.53;100.00
39891;BME280;25564;53.312;9.790;2023-12-07T04:46:15;101257.75;;;3.57;100.00
39891;BME280;25564;53.312;9.790;2023-12-07T04:48:48;101258.72;;;3.60;100.00
39891;BME280;25564;53.312;9.790;2023-12-07T04:51:20;101249.09;;;3.61;100.00
39891;BME280;25564;53.312;9.790;2023-12-07T04:53:51;101256.16;;;3.64;100.00
39891;BME280;25564;53.312;9.790;2023-12-07T04:56:26;101258.81;;;3.67;100.00
39891;BME280;25564;53.312;9.790;2023-12-07T04:58:57;101258.84;;;3.68;100.00
39891;BME280;25564;53.312;9.790;2023-12-07T05:01:30;101262.28;;;3.64;100.00
39891;BME280;25564;53.312;9.790;2023-12-07T05:04:02;101266.72;;;3.68;100.00
39891;BME280;25564;53.312;9.790;2023-12-07T05:06:34;101271.19;;;3.72;100.00
39891;BME280;25564;53.312;9.790;2023-12-07T05:09:07;101269.44;;;3.73;100.00
39891;BME280;25564;53.312;9.790;2023-12-07T05:11:42;101255.34;;;3.68;100.00
39891;BME280;25564;53.312;9.790;2023-12-07T05:14:16;101265.06;;;3.73;100.00
39891;BME280;25564;53.312;9.790;2023-12-07T05:16:47;101268.63;;;3.75;100.00
39891;BME280;25564;53.312;9.790;2023-12-07T05:19:22;101267.78;;;3.78;100.00
39891;BME280;25564;53.312;9.790;2023-12-07T05:21:55;101267.81;;;3.79;100.00
39891;BME280;25564;53.312;9.790;2023-12-07T05:24:27;101270.38;;;3.76;100.00
39891;BME280;25564;53.312;9.790;2023-12-07T05:26:59;101269.59;;;3.80;100.00
39891;BME280;25564;53.312;9.790;2023-12-07T05:29:30;101259.88;;;3.76;100.00
39891;BME280;25564;53.312;9.790;2023-12-07T05:32:04;101260.81;;;3.78;100.00
39891;BME280;25564;53.312;9.790;2023-12-07T05:34:36;101270.44;;;3.79;100.00
39891;BME280;25564;53.312;9.790;2023-12-07T05:37:07;101270.44;;;3.79;100.00
39891;BME280;25564;53.312;9.790;2023-12-07T05:39:39;101266.06;;;3.78;100.00
39891;BME280;25564;53.312;9.790;2023-12-07T05:42:11;101271.31;;;3.80;100.00
39891;BME280;25564;53.312;9.790;2023-12-07T05:44:42;101266.03;;;3.77;100.00
39891;BME280;25564;53.312;9.790;2023-12-07T05:47:14;101268.72;;;3.81;100.00
39891;BME280;25564;53.312;9.790;2023-12-07T05:49:45;101266.06;;;3.78;100.00
39891;BME280;25564;53.312;9.790;2023-12-07T05:52:17;101266.91;;;3.77;100.00
39891;BME280;25564;53.312;9.790;2023-12-07T05:54:48;101270.38;;;3.76;100.00
39891;BME280;25564;53.312;9.790;2023-12-07T05:57:20;101262.38;;;3.69;100.00
39891;BME280;25564;53.312;9.790;2023-12-07T05:59:52;101272.91;;;3.72;100.00
39891;BME280;25564;53.312;9.790;2023-12-07T06:02:25;101272.03;;;3.71;100.00
39891;BME280;25564;53.312;9.790;2023-12-07T06:04:56;101273.75;;;3.69;100.00
39891;BME280;25564;53.312;9.790;2023-12-07T06:07:29;101261.50;;;3.70;100.00
39891;BME280;25564;53.312;9.790;2023-12-07T06:10:01;101272.75;;;3.63;100.00
39891;BME280;25564;53.312;9.790;2023-12-07T06:12:32;101262.13;;;3.56;100.00
39891;BME280;25564;53.312;9.790;2023-12-07T06:15:05;101275.34;;;3.61;100.00
39891;BME280;25564;53.312;9.790;2023-12-07T06:17:39;101279.72;;;3.62;100.00
39891;BME280;25564;53.312;9.790;2023-12-07T06:20:10;101281.44;;;3.60;100.00
39891;BME280;25564;53.312;9.790;2023-12-07T06:22:42;101274.41;;;3.59;100.00
39891;BME280;25564;53.312;9.790;2023-12-07T06:25:14;101280.53;;;3.58;100.00
39891;BME280;25564;53.312;9.790;2023-12-07T06:27:46;101276.16;;;3.58;100.00
39891;BME280;25564;53.312;9.790;2023-12-07T06:30:17;101277.94;;;3.59;100.00
39891;BME280;25564;53.312;9.790;2023-12-07T06:32:50;101277.84;;;3.55;100.00
39891;BME280;25564;53.312;9.790;2023-12-07T06:35:23;101276.00;;;3.51;100.00
39891;BME280;25564;53.312;9.790;2023-12-07T06:37:56;101287.50;;;3.57;100.00
39891;BME280;25564;53.312;9.790;2023-12-07T06:40:29;101285.66;;;3.52;100.00
39891;BME280;25564;53.312;9.790;2023-12-07T06:43:01;101288.28;;;3.52;100.00
39891;BME280;25564;53.312;9.790;2023-12-07T06:45:32;101273.25;;;3.45;100.00
39891;BME280;25564;53.312;9.790;2023-12-07T06:48:05;101283.78;;;3.46;100.00
39891;BME280;25564;53.312;9.790;2023-12-07T06:50:37;101298.66;;;3.46;100.00
39891;BME280;25564;53.312;9.790;2023-12-07T06:53:10;101309.94;;;3.42;100.00
39891;BME280;25564;53.312;9.790;2023-12-07T06:55:41;101307.28;;;3.40;100.00
39891;BME280;25564;53.312;9.790;2023-12-07T06:58:16;101302.94;;;3.42;100.00
39891;BME280;25564;53.312;9.790;2023-12-07T07:00:47;101298.66;;;3.46;100.00
39891;BME280;25564;53.312;9.790;2023-12-07T07:03:21;101300.44;;;3.48;100.00
39891;BME280;25564;53.312;9.790;2023-12-07T07:05:56;101299.56;;;3.48;100.00
39891;BME280;25564;53.312;9.790;2023-12-07T07:08:28;101318.00;;;3.51;100.00
39891;BME280;25564;53.312;9.790;2023-12-07T07:11:09;101314.47;;;3.50;100.00
39891;BME280;25564;53.312;9.790;2023-12-07T07:13:42;101312.72;;;3.49;100.00
39891;BME280;25564;53.312;9.790;2023-12-07T07:16:14;101322.34;;;3.50;100.00
39891;BME280;25564;53.312;9.790;2023-12-07T07:18:46;101323.25;;;3.51;100.00
39891;BME280;25564;53.312;9.790;2023-12-07T07:21:20;101317.19;;;3.55;100.00
39891;BME280;25564;53.312;9.790;2023-12-07T07:23:51;101311.88;;;3.52;100.00
39891;BME280;25564;53.312;9.790;2023-12-07T07:26:23;101304.88;;;3.51;100.00
39891;BME280;25564;53.312;9.790;2023-12-07T07:28:56;101316.50;;;3.64;100.00
39891;BME280;25564;53.312;9.790;2023-12-07T07:31:29;101316.50;;;3.64;100.00
39891;BME280;25564;53.312;9.790;2023-12-07T07:34:01;101320.06;;;3.67;100.00
39891;BME280;25564;53.312;9.790;2023-12-07T07:36:34;101312.13;;;3.64;100.00
39891;BME280;25564;53.312;9.790;2023-12-07T07:39:05;101328.94;;;3.72;100.00
39891;BME280;25564;53.312;9.790;2023-12-07T07:41:39;101320.22;;;3.75;100.00
39891;BME280;25564;53.312;9.790;2023-12-07T07:44:11;101330.88;;;3.82;100.00
39891;BME280;25564;53.312;9.790;2023-12-07T07:46:44;101329.19;;;3.86;100.00
39891;BME280;25564;53.312;9.790;2023-12-07T07:49:16;101330.91;;;3.84;100.00
39891;BME280;25564;53.312;9.790;2023-12-07T07:51:48;101333.56;;;3.85;100.00
39891;BME280;25564;53.312;9.790;2023-12-07T07:54:20;101342.38;;;3.89;100.00
39891;BME280;25564;53.312;9.790;2023-12-07T07:56:53;101340.69;;;3.91;100.00
39891;BME280;25564;53.312;9.790;2023-12-07T07:59:25;101345.03;;;3.90;100.00
39891;BME280;25564;53.312;9.790;2023-12-07T08:01:56;101334.50;;;3.89;100.00
39891;BME280;25564;53.312;9.790;2023-12-07T08:04:28;101333.56;;;3.85;100.00
39891;BME280;25564;53.312;9.790;2023-12-07T08:07:00;101329.97;;;3.80;100.00
39891;BME280;25564;53.312;9.790;2023-12-07T08:09:32;101347.44;;;3.80;100.00
39891;BME280;25564;53.312;9.790;2023-12-07T08:12:04;101343.00;;;3.76;100.00
39891;BME280;25564;53.312;9.790;2023-12-07T08:14:36;101346.44;;;3.73;100.00
39891;BME280;25564;53.312;9.790;2023-12-07T08:17:11;101358.75;;;3.76;100.00
39891;BME280;25564;53.312;9.790;2023-12-07T08:19:43;101353.50;;;3.76;100.00
39891;BME280;25564;53.312;9.790;2023-12-07T08:22:16;101354.50;;;3.82;100.00
39891;BME280;25564;53.312;9.790;2023-12-07T08:24:47;101358.94;;;3.85;100.00
39891;BME280;25564;53.312;9.790;2023-12-07T08:27:32;101356.34;;;3.86;100.00
39891;BME280;25564;53.312;9.790;2023-12-07T08:30:05;101357.25;;;3.88;100.00
39891;BME280;25564;53.312;9.790;2023-12-07T08:32:37;101356.50;;;3.94;100.00
39891;BME280;25564;53.312;9.790;2023-12-07T08:35:10;101357.41;;;3.96;100.00
39891;BME280;25564;53.312;9.790;2023-12-07T08:37:41;101352.34;;;4.07;100.00
39891;BME280;25564;53.312;9.790;2023-12-07T08:40:13;101357.75;;;4.14;100.00
39891;BME280;25564;53.312;9.790;2023-12-07T08:42:47;101362.22;;;4.20;100.00
39891;BME280;25564;53.312;9.790;2023-12-07T08:45:23;101353.44;;;4.19;100.00
39891;BME280;25564;53.312;9.790;2023-12-07T08:47:55;101350.84;;;4.21;100.00
39891;BME280;25564;53.312;9.790;2023-12-07T08:50:27;101357.19;;;4.32;100.00
39891;BME280;25564;53.312;9.790;2023-12-07T08:52:59;101347.63;;;4.36;100.00
39891;BME280;25564;53.312;9.790;2023-12-07T08:55:35;101350.41;;;4.45;100.00
39891;BME280;25564;53.312;9.790;2023-12-07T08:58:08;101355.78;;;4.52;100.00
39891;BME280;25564;53.312;9.790;2023-12-07T09:00:43;101361.22;;;4.62;100.00
39891;BME280;25564;53.312;9.790;2023-12-07T09:03:15;101356.69;;;4.54;100.00
39891;BME280;25564;53.312;9.790;2023-12-07T09:05:48;101365.50;;;4.56;100.00
39891;BME280;25564;53.312;9.790;2023-12-07T09:08:20;101366.31;;;4.54;100.00
39891;BME280;25564;53.312;9.790;2023-12-07T09:10:51;101374.28;;;4.58;100.00
39891;BME280;25564;53.312;9.790;2023-12-07T09:13:23;101376.91;;;4.57;100.00
39891;BME280;25564;53.312;9.790;2023-12-07T09:15:55;101361.09;;;4.55;100.00
39891;BME280;25564;53.312;9.790;2023-12-07T09:18:26;101369.19;;;4.68;100.00
39891;BME280;25564;53.312;9.790;2023-12-07T09:20:58;101362.28;;;4.74;100.00
39891;BME280;25564;53.312;9.790;2023-12-07T09:23:31;101372.03;;;4.80;100.00
39891;BME280;25564;53.312;9.790;2023-12-07T09:26:03;101368.59;;;4.84;100.00
39891;BME280;25564;53.312;9.790;2023-12-07T09:28:35;101366.97;;;4.92;100.00
39891;BME280;25564;53.312;9.790;2023-12-07T09:31:07;101384.66;;;5.02;100.00
39891;BME280;25564;53.312;9.790;2023-12-07T09:33:39;101378.56;;;5.05;100.00
39891;BME280;25564;53.312;9.790;2023-12-07T09:36:11;101384.75;;;5.08;100.00
39891;BME280;25564;53.312;9.790;2023-12-07T09:38:43;101383.06;;;5.12;100.00
39891;BME280;25564;53.312;9.790;2023-12-07T09:41:14;101384.91;;;5.20;100.00
39891;BME280;25564;53.312;9.790;2023-12-07T09:43:46;101370.94;;;5.24;100.00
39891;BME280;25564;53.312;9.790;2023-12-07T09:46:24;101381.59;;;5.34;100.00
39891;BME280;25564;53.312;9.790;2023-12-07T09:48:55;101380.75;;;5.36;100.00
39891;BME280;25564;53.312;9.790;2023-12-07T09:51:28;101380.81;;;5.41;100.00
39891;BME280;25564;53.312;9.790;2023-12-07T09:54:03;101375.47;;;5.35;100.00
39891;BME280;25564;53.312;9.790;2023-12-07T09:56:36;101385.19;;;5.39;100.00
39891;BME280;25564;53.312;9.790;2023-12-07T09:59:08;101379.91;;;5.37;100.00
39891;BME280;25564;53.312;9.790;2023-12-07T10:01:41;101363.13;;;5.29;100.00
39891;BME280;25564;53.312;9.790;2023-12-07T10:04:20;101379.06;;;5.40;100.00
39891;BME280;25564;53.312;9.790;2023-12-07T10:06:56;101378.16;;;5.38;100.00
39891;BME280;25564;53.312;9.790;2023-12-07T10:09:27;101384.34;;;5.41;100.00
39891;BME280;25564;53.312;9.790;2023-12-07T10:12:05;101376.44;;;5.41;100.00
39891;BME280;25564;53.312;9.790;2023-12-07T10:14:38;101381.75;;;5.44;100.00
39891;BME280;25564;53.312;9.790;2023-12-07T10:17:09;101387.03;;;5.46;100.00
39891;BME280;25564;53.312;9.790;2023-12-07T10:19:41;101391.44;;;5.47;100.00
39891;BME280;25564;53.312;9.790;2023-12-07T10:22:13;101380.06;;;5.48;100.00
39891;BME280;25564;53.312;9.790;2023-12-07T10:24:48;101384.50;;;5.52;100.00
39891;BME280;25564;53.312;9.790;2023-12-07T10:27:20;101380.06;;;5.48;100.00
39891;BME280;25564;53.312;9.790;2023-12-07T10:29:53;101389.72;;;5.49;100.00
39891;BME280;25564;53.312;9.790;2023-12-07T10:32:25;101370.38;;;5.45;100.00
39891;BME280;25564;53.312;9.790;2023-12-07T10:34:57;101388.03;;;5.54;100.00
39891;BME280;25564;53.312;9.790;2023-12-07T10:37:32;101375.75;;;5.54;100.00
39891;BME280;25564;53.312;9.790;2023-12-07T10:40:05;101381.13;;;5.62;100.00
39891;BME280;25564;53.312;9.790;2023-12-07T10:42:40;101375.88;;;5.64;100.00
39891;BME280;25564;53.312;9.790;2023-12-07T10:45:15;101378.56;;;5.67;100.00
39891;BME280;25564;53.312;9.790;2023-12-07T10:47:48;101375.06;;;5.69;100.00
39891;BME280;25564;53.312;9.790;2023-12-07T10:50:22;101385.66;;;5.72;100.00
39891;BME280;25564;53.312;9.790;2023-12-07T10:52:57;101380.34;;;5.69;100.00
39891;BME280;25564;53.312;9.790;2023-12-07T10:55:38;101363.59;;;5.64;100.00
39891;BME280;25564;53.312;9.790;2023-12-07T10:58:13;101377.66;;;5.66;100.00
39891;BME280;25564;53.312;9.790;2023-12-07T11:00:46;101375.03;;;5.66;100.00
39891;BME280;25564;53.312;9.790;2023-12-07T11:03:20;101376.84;;;5.70;100.00
39891;BME280;25564;53.312;9.790;2023-12-07T11:05:53;101367.19;;;5.71;100.00
39891;BME280;25564;53.312;9.790;2023-12-07T11:08:49;101368.91;;;5.67;100.00
39891;BME280;25564;53.312;9.790;2023-12-07T11:11:31;101362.78;;;5.70;100.00
39891;BME280;25564;53.312;9.790;2023-12-07T11:14:07;101357.53;;;5.70;100.00
39891;BME280;25564;53.312;9.790;2023-12-07T11:16:41;101361.06;;;5.72;100.00
39891;BME280;25564;53.312;9.790;2023-12-07T11:19:43;101368.06;;;5.70;100.00
39891;BME280;25564;53.312;9.790;2023-12-07T11:22:15;101360.22;;;5.74;100.00
39891;BME280;25564;53.312;9.790;2023-12-07T11:24:52;101361.16;;;5.79;100.00
39891;BME280;25564;53.312;9.790;2023-12-07T11:27:24;101358.59;;;5.84;100.00
39891;BME280;25564;53.312;9.790;2023-12-07T11:29:59;101361.28;;;5.88;100.00
39891;BME280;25564;53.312;9.790;2023-12-07T11:32:31;101353.47;;;5.93;100.00
39891;BME280;25564;53.312;9.790;2023-12-07T11:35:11;101352.69;;;6.02;100.00
39891;BME280;25564;53.312;9.790;2023-12-07T11:38:03;101353.59;;;6.05;100.00
39891;BME280;25564;53.312;9.790;2023-12-07T11:40:40;101358.00;;;6.08;100.00
39891;BME280;25564;53.312;9.790;2023-12-07T11:43:18;101364.19;;;6.10;100.00
39891;BME280;25564;53.312;9.790;2023-12-07T11:46:01;101351.84;;;6.06;100.00
39891;BME280;25564;53.312;9.790;2023-12-07T11:48:33;101349.22;;;6.06;100.00
39891;BME280;25564;53.312;9.790;2023-12-07T11:51:06;101351.00;;;6.08;100.00
39891;BME280;25564;53.312;9.790;2023-12-07T11:53:42;101346.56;;;6.04;100.00
39891;BME280;25564;53.312;9.790;2023-12-07T11:56:13;101342.97;;;5.98;100.00
39891;BME280;25564;53.312;9.790;2023-12-07T11:58:45;101344.75;;;6.00;100.00
39891;BME280;25564;53.312;9.790;2023-12-07T12:01:18;101339.47;;;5.99;100.00
39891;BME280;25564;53.312;9.790;2023-12-07T12:03:49;101339.50;;;6.00;100.00
39891;BME280;25564;53.312;9.790;2023-12-07T12:06:23;101331.63;;;6.03;100.00
39891;BME280;25564;53.312;9.790;2023-12-07T12:08:58;101328.94;;;6.00;100.00
39891;BME280;25564;53.312;9.790;2023-12-07T12:11:36;101321.94;;;6.01;100.00
39891;BME280;25564;53.312;9.790;2023-12-07T12:14:08;101326.34;;;6.02;100.00
39891;BME280;25564;53.312;9.790;2023-12-07T12:16:42;101334.34;;;6.12;100.00
39891;BME280;25564;53.312;9.790;2023-12-07T12:19:14;101323.81;;;6.14;100.00
39891;BME280;25564;53.312;9.790;2023-12-07T12:22:02;101317.72;;;6.19;100.00
39891;BME280;25564;53.312;9.790;2023-12-07T12:24:38;101323.91;;;6.21;100.00
39891;BME280;25564;53.312;9.790;2023-12-07T12:27:13;101316.91;;;6.23;100.00
39891;BME280;25564;53.312;9.790;2023-12-07T12:29:46;101317.78;;;6.27;100.00
39891;BME280;25564;53.312;9.790;2023-12-07T12:32:18;101311.63;;;6.23;100.00
39891;BME280;25564;53.312;9.790;2023-12-07T12:34:51;101308.97;;;6.20;100.00
39891;BME280;25564;53.312;9.790;2023-12-07T12:37:23;101317.72;;;6.18;100.00
39891;BME280;25564;53.312;9.790;2023-12-07T12:39:56;101316.84;;;6.19;100.00
39891;BME280;25564;53.312;9.790;2023-12-07T12:42:33;101317.69;;;6.15;100.00
39891;BME280;25564;53.312;9.790;2023-12-07T12:45:07;101314.16;;;6.13;100.00
39891;BME280;25564;53.312;9.790;2023-12-07T12:47:42;101308.03;;;6.15;100.00
39891;BME280;25564;53.312;9.790;2023-12-07T12:50:38;101299.19;;;6.09;100.00
39891;BME280;25564;53.312;9.790;2023-12-07T12:53:11;101299.16;;;6.07;100.00
39891;BME280;25564;53.312;9.790;2023-12-07T12:55:42;101296.38;;;5.94;100.00
39891;BME280;25564;53.312;9.790;2023-12-07T12:58:14;101300.69;;;5.88;100.00
39891;BME280;25564;53.312;9.790;2023-12-07T13:00:48;101289.16;;;5.77;100.00
39891;BME280;25564;53.312;9.790;2023-12-07T13:03:20;101295.34;;;5.81;100.00
39891;BME280;25564;53.312;9.790;2023-12-07T13:05:51;101298.81;;;5.77;100.00
39891;BME280;25564;53.312;9.790;2023-12-07T13:08:23;101300.50;;;5.73;100.00
39891;BME280;25564;53.312;9.790;2023-12-07T13:10:56;101301.44;;;5.77;100.00
39891;BME280;25564;53.312;9.790;2023-12-07T13:13:27;101299.66;;;5.76;100.00
39891;BME280;25564;53.312;9.790;2023-12-07T13:15:59;101294.41;;;5.77;100.00
39891;BME280;25564;53.312;9.790;2023-12-07T13:18:33;101286.47;;;5.74;100.00
39891;BME280;25564;53.312;9.790;2023-12-07T13:21:06;101290.84;;;5.71;100.00